createdAt,value
2022-11-13T00:02:03.441Z,101299.48
2022-11-13T00:05:11.807Z,101297.32
2022-11-13T00:08:20.093Z,101289.05
2022-11-13T00:11:28.117Z,101291.31
2022-11-13T00:14:36.669Z,101286.20
2022-11-13T00:17:44.502Z,101280.20
2022-11-13T00:20:52.866Z,101278.36
2022-11-13T00:24:01.269Z,101275.96
2022-11-13T00:27:09.490Z,101280.37
2022-11-13T00:30:19.706Z,101280.08
2022-11-13T00:33:53.580Z,101281.49
2022-11-13T00:36:56.277Z,101292.45
2022-11-13T00:40:06.358Z,101294.71
2022-11-13T00:43:14.544Z,101291.44
2022-11-13T00:46:22.426Z,101287.52
2022-11-13T00:49:30.637Z,101284.05
2022-11-13T00:52:38.458Z,101286.45
2022-11-13T00:55:46.665Z,101286.02
2022-11-13T00:58:55.353Z,101284.89
2022-11-13T01:02:03.894Z,101289.39
2022-11-13T01:05:12.535Z,101290.31
2022-11-13T01:08:21.074Z,101286.85
2022-11-13T01:11:30.705Z,101280.06
2022-11-13T01:14:38.800Z,101273.77
2022-11-13T01:17:47.327Z,101274.36
2022-11-13T01:21:03.794Z,101261.11
2022-11-13T01:24:12.102Z,101257.05
2022-11-13T01:27:20.413Z,101254.38
2022-11-13T01:30:28.829Z,101246.45
2022-11-13T01:33:37.429Z,101245.33
2022-11-13T01:36:45.723Z,101245.11
2022-11-13T01:39:54.023Z,101235.45
2022-11-13T01:43:19.993Z,101229.23
2022-11-13T01:46:31.193Z,101226.92
2022-11-13T01:49:41.870Z,101224.42
2022-11-13T01:52:50.144Z,101229.48
2022-11-13T01:55:59.168Z,101227.73
2022-11-13T01:59:11.652Z,101227.00
2022-11-13T02:02:19.578Z,101226.10
2022-11-13T02:05:28.142Z,101223.59
2022-11-13T02:08:36.422Z,101218.98
2022-11-13T02:11:45.304Z,101223.07
2022-11-13T02:14:55.323Z,101218.10
2022-11-13T02:18:03.924Z,101212.56
2022-11-13T02:21:29.620Z,101202.65
2022-11-13T02:24:44.993Z,101194.77
2022-11-13T02:27:53.948Z,101185.05
2022-11-13T02:31:09.390Z,101182.16
2022-11-13T02:34:17.691Z,101182.67
2022-11-13T02:37:25.858Z,101181.16
2022-11-13T02:40:34.344Z,101186.10
2022-11-13T02:43:42.413Z,101187.30
2022-11-13T02:46:50.184Z,101183.52
2022-11-13T02:49:58.471Z,101180.39
2022-11-13T02:53:07.331Z,101176.58
2022-11-13T02:56:15.595Z,101170.33
2022-11-13T02:59:23.890Z,101166.48
2022-11-13T03:02:31.789Z,101163.27
2022-11-13T03:05:39.472Z,101164.38
2022-11-13T03:08:47.595Z,101167.33
2022-11-13T03:11:55.566Z,101165.68
2022-11-13T03:15:04.506Z,101161.52
2022-11-13T03:18:12.662Z,101165.36
2022-11-13T03:21:21.008Z,101160.65
2022-11-13T03:24:29.177Z,101159.86
2022-11-13T03:27:37.573Z,101151.71
2022-11-13T03:30:47.230Z,101143.52
2022-11-13T03:33:55.262Z,101137.27
2022-11-13T03:37:03.272Z,101135.45
2022-11-13T03:40:12.619Z,101135.75
2022-11-13T03:43:20.473Z,101133.09
2022-11-13T03:46:28.450Z,101128.60
2022-11-13T03:49:36.347Z,101123.38
2022-11-13T03:52:44.862Z,101130.45
2022-11-13T03:55:53.368Z,101128.98
2022-11-13T03:59:01.612Z,101129.11
2022-11-13T04:02:09.779Z,101128.69
2022-11-13T04:05:22.554Z,101121.18
2022-11-13T04:08:31.282Z,101113.09
2022-11-13T04:11:39.762Z,101109.79
2022-11-13T04:14:47.785Z,101104.29
2022-11-13T04:17:55.772Z,101097.16
2022-11-13T04:21:05.689Z,101094.10
2022-11-13T04:24:13.860Z,101091.25
2022-11-13T04:27:21.960Z,101084.76
2022-11-13T04:30:30.072Z,101082.73
2022-11-13T04:33:38.228Z,101080.63
2022-11-13T04:36:46.271Z,101074.94
2022-11-13T04:39:54.424Z,101075.04
2022-11-13T04:43:03.379Z,101075.33
2022-11-13T04:46:11.345Z,101075.05
2022-11-13T04:49:19.515Z,101079.15
2022-11-13T04:52:28.281Z,101070.11
2022-11-13T04:55:36.276Z,101066.14
2022-11-13T04:58:44.218Z,101066.88
2022-11-13T05:01:52.671Z,101073.10
2022-11-13T05:05:04.998Z,101076.58
2022-11-13T05:08:13.547Z,101075.03
2022-11-13T05:11:21.440Z,101068.47
2022-11-13T05:14:29.826Z,101068.23
2022-11-13T05:17:37.683Z,101062.61
2022-11-13T05:20:45.799Z,101060.09
2022-11-13T05:23:53.967Z,101054.38
2022-11-13T05:27:02.033Z,101046.50
2022-11-13T05:30:11.145Z,101045.59
2022-11-13T05:33:19.289Z,101043.65
2022-11-13T05:36:27.658Z,101033.23
2022-11-13T05:39:35.758Z,101031.98
2022-11-13T05:42:43.492Z,101024.95
2022-11-13T05:45:51.716Z,101018.71
2022-11-13T05:49:01.212Z,101010.14
2022-11-13T05:52:09.635Z,101014.42
2022-11-13T05:55:20.090Z,101022.71
2022-11-13T05:58:32.438Z,101013.54
2022-11-13T06:01:42.264Z,101011.91
2022-11-13T06:04:50.713Z,101009.91
2022-11-13T06:08:00.050Z,101009.70
2022-11-13T06:11:11.230Z,101008.30
2022-11-13T06:14:19.512Z,101005.05
2022-11-13T06:17:28.070Z,100999.23
2022-11-13T06:20:36.233Z,101003.39
2022-11-13T06:23:44.668Z,101005.42
2022-11-13T06:26:57.120Z,101003.66
2022-11-13T06:30:07.595Z,101005.05
2022-11-13T06:33:15.709Z,101004.70
2022-11-13T06:36:25.894Z,101005.80
2022-11-13T06:39:33.958Z,101007.23
2022-11-13T06:42:42.231Z,101005.70
2022-11-13T06:45:50.314Z,101007.52
2022-11-13T06:48:59.537Z,101007.76
2022-11-13T06:52:07.569Z,101003.16
2022-11-13T06:55:16.162Z,101005.16
2022-11-13T06:58:24.652Z,101004.50
2022-11-13T07:01:32.589Z,101001.51
2022-11-13T07:04:40.839Z,101006.31
2022-11-13T07:07:48.789Z,101009.27
2022-11-13T07:10:58.168Z,101011.52
2022-11-13T07:14:06.104Z,101013.27
2022-11-13T07:17:14.095Z,101009.46
2022-11-13T07:20:24.550Z,101004.45
2022-11-13T07:23:33.208Z,100992.09
2022-11-13T07:26:41.938Z,100991.61
2022-11-13T07:29:50.159Z,100990.24
2022-11-13T07:33:02.584Z,100988.87
2022-11-13T07:36:11.616Z,100995.63
2022-11-13T07:39:19.929Z,101007.15
2022-11-13T07:42:28.149Z,101014.55
2022-11-13T07:45:36.278Z,101009.67
2022-11-13T07:48:44.239Z,101009.58
2022-11-13T07:51:52.875Z,101014.13
2022-11-13T07:55:01.230Z,101014.34
2022-11-13T07:58:10.135Z,101017.23
2022-11-13T08:01:18.562Z,101023.17
2022-11-13T08:04:27.871Z,101024.74
2022-11-13T08:07:35.937Z,101021.34
2022-11-13T08:10:43.848Z,101027.48
2022-11-13T08:13:52.884Z,101032.34
2022-11-13T08:17:01.085Z,101036.05
2022-11-13T08:20:11.285Z,101036.42
2022-11-13T08:23:19.942Z,101031.19
2022-11-13T08:26:28.406Z,101032.69
2022-11-13T08:29:36.896Z,101015.76
2022-11-13T08:32:44.727Z,101005.30
2022-11-13T08:35:57.181Z,101009.02
2022-11-13T08:39:05.759Z,101011.45
2022-11-13T08:42:14.020Z,101007.41
2022-11-13T08:45:22.280Z,101000.68
2022-11-13T08:48:30.693Z,101001.41
2022-11-13T08:51:39.048Z,101009.39
2022-11-13T08:54:47.431Z,101010.48
2022-11-13T08:57:58.014Z,101006.28
2022-11-13T09:01:06.824Z,100997.33
2022-11-13T09:04:15.046Z,100989.15
2022-11-13T09:07:27.222Z,100989.23
2022-11-13T09:10:35.600Z,100988.63
2022-11-13T09:13:46.545Z,100985.35
2022-11-13T09:16:56.619Z,100980.99
2022-11-13T09:20:08.780Z,100982.23
2022-11-13T09:23:19.521Z,100981.55
2022-11-13T09:26:27.581Z,100979.33
2022-11-13T09:29:36.042Z,100978.91
2022-11-13T09:32:44.111Z,100977.17
2022-11-13T09:35:52.190Z,100970.71
2022-11-13T09:39:00.606Z,100973.67
2022-11-13T09:42:14.402Z,100972.52
2022-11-13T09:45:22.960Z,100964.05
2022-11-13T09:48:37.113Z,100965.52
2022-11-13T09:51:51.624Z,100967.21
2022-11-13T09:55:00.240Z,100966.84
2022-11-13T09:58:19.442Z,100964.22
2022-11-13T10:01:36.229Z,100961.98
2022-11-13T10:04:57.706Z,100957.38
2022-11-13T10:08:13.543Z,100957.75
2022-11-13T10:11:31.198Z,100955.24
2022-11-13T10:14:45.448Z,100951.59
2022-11-13T10:17:58.827Z,100941.55
2022-11-13T10:21:16.415Z,100942.34
2022-11-13T10:24:28.820Z,100943.02
2022-11-13T10:27:37.380Z,100947.20
2022-11-13T10:30:46.877Z,100935.08
2022-11-13T10:33:57.346Z,100933.51
2022-11-13T10:37:13.766Z,100933.30
2022-11-13T10:40:26.464Z,100930.02
2022-11-13T10:43:35.984Z,100925.08
2022-11-13T10:46:44.163Z,100924.94
2022-11-13T10:49:52.304Z,100927.22
2022-11-13T10:53:00.429Z,100922.05
2022-11-13T10:56:25.315Z,100924.41
2022-11-13T10:59:41.552Z,100917.64
2022-11-13T11:02:50.867Z,100913.78
2022-11-13T11:06:01.517Z,100909.27
2022-11-13T11:09:19.185Z,100910.73
2022-11-13T11:12:30.963Z,100907.05
2022-11-13T11:15:45.739Z,100893.77
2022-11-13T11:18:57.693Z,100881.04
2022-11-13T11:22:11.617Z,100876.83
2022-11-13T11:25:26.949Z,100868.77
2022-11-13T11:28:40.780Z,100864.77
2022-11-13T11:31:53.724Z,100857.02
2022-11-13T11:35:12.215Z,100857.90
2022-11-13T11:38:26.960Z,100851.96
2022-11-13T11:41:42.715Z,100841.64
2022-11-13T11:45:09.795Z,100833.89
2022-11-13T11:48:20.624Z,100825.05
2022-11-13T11:51:34.955Z,100818.94
2022-11-13T11:54:47.966Z,100807.98
2022-11-13T11:58:05.497Z,100808.84
2022-11-13T12:01:25.109Z,100809.63
2022-11-13T12:04:50.351Z,100810.98
2022-11-13T12:08:08.612Z,100803.51
2022-11-13T12:11:32.885Z,100798.90
2022-11-13T12:14:52.190Z,100806.80
2022-11-13T12:18:10.701Z,100799.48
2022-11-13T12:21:24.338Z,100786.80
2022-11-13T12:24:59.736Z,100785.27
2022-11-13T12:28:18.178Z,100794.91
2022-11-13T12:31:40.420Z,100797.95
2022-11-13T12:34:51.737Z,100797.02
2022-11-13T12:38:08.067Z,100800.11
2022-11-13T12:41:22.862Z,100798.83
2022-11-13T12:44:33.864Z,100791.85
2022-11-13T12:47:42.899Z,100783.89
2022-11-13T12:51:00.021Z,100779.46
2022-11-13T12:54:10.527Z,100775.87
2022-11-13T12:57:27.284Z,100777.00
2022-11-13T13:00:41.277Z,100771.57
2022-11-13T13:04:26.693Z,100775.13
2022-11-13T13:07:54.100Z,100768.61
2022-11-13T13:11:14.855Z,100769.22
2022-11-13T13:14:37.707Z,100772.17
2022-11-13T13:17:45.709Z,100768.23
2022-11-13T13:21:03.725Z,100765.11
2022-11-13T13:24:38.556Z,100759.94
2022-11-13T13:27:57.913Z,100749.30
2022-11-13T13:31:17.977Z,100747.02
2022-11-13T13:34:36.481Z,100746.91
2022-11-13T13:37:55.551Z,100744.70
2022-11-13T13:41:17.041Z,100737.70
2022-11-13T13:44:49.419Z,100738.84
2022-11-13T13:47:58.872Z,100743.91
2022-11-13T13:51:16.915Z,100735.98
2022-11-13T13:54:29.373Z,100732.70
2022-11-13T13:57:42.226Z,100734.16
2022-11-13T14:01:17.077Z,100728.79
2022-11-13T14:04:28.205Z,100721.62
2022-11-13T14:07:37.575Z,100719.48
2022-11-13T14:10:46.311Z,100713.80
2022-11-13T14:13:54.373Z,100707.75
2022-11-13T14:17:03.384Z,100710.41
2022-11-13T14:20:14.053Z,100711.25
2022-11-13T14:23:28.049Z,100712.81
2022-11-13T14:26:35.993Z,100704.15
2022-11-13T14:29:48.492Z,100702.47
2022-11-13T14:32:59.193Z,100701.91
2022-11-13T14:36:08.403Z,100700.54
2022-11-13T14:39:24.882Z,100700.23
2022-11-13T14:42:36.803Z,100696.94
2022-11-13T14:45:54.437Z,100688.10
2022-11-13T14:49:02.623Z,100683.96
2022-11-13T14:52:21.989Z,100685.09
2022-11-13T14:55:32.565Z,100678.02
2022-11-13T14:58:44.076Z,100680.30
2022-11-13T15:01:55.953Z,100687.30
2022-11-13T15:05:04.780Z,100688.50
2022-11-13T15:08:13.910Z,100688.95
2022-11-13T15:11:26.833Z,100684.92
2022-11-13T15:14:35.086Z,100683.97
2022-11-13T15:17:46.354Z,100684.52
2022-11-13T15:20:54.642Z,100684.63
2022-11-13T15:24:02.885Z,100685.75
2022-11-13T15:27:15.148Z,100683.35
2022-11-13T15:30:23.250Z,100683.48
2022-11-13T15:33:31.210Z,100676.70
2022-11-13T15:36:39.885Z,100676.16
2022-11-13T15:39:48.070Z,100679.05
2022-11-13T15:42:58.563Z,100678.77
2022-11-13T15:46:10.541Z,100671.23
2022-11-13T15:49:18.546Z,100670.94
2022-11-13T15:52:30.396Z,100673.16
2022-11-13T15:55:41.434Z,100673.34
2022-11-13T15:58:49.796Z,100664.20
2022-11-13T16:01:58.406Z,100661.50
2022-11-13T16:05:07.859Z,100668.64
2022-11-13T16:08:16.943Z,100669.50
2022-11-13T16:11:25.013Z,100663.52
2022-11-13T16:14:33.300Z,100668.56
2022-11-13T16:17:43.172Z,100670.79
2022-11-13T16:20:51.238Z,100667.90
2022-11-13T16:23:59.246Z,100660.92
2022-11-13T16:27:12.149Z,100659.31
2022-11-13T16:30:24.256Z,100656.13
2022-11-13T16:33:32.548Z,100651.52
2022-11-13T16:36:41.651Z,100642.27
2022-11-13T16:39:50.524Z,100641.20
2022-11-13T16:42:58.552Z,100630.62
2022-11-13T16:46:20.196Z,100632.79
2022-11-13T16:49:28.267Z,100637.61
2022-11-13T16:52:39.539Z,100639.21
2022-11-13T16:55:47.624Z,100643.89
2022-11-13T16:58:56.892Z,100637.02
2022-11-13T17:02:11.385Z,100634.98
2022-11-13T17:05:21.905Z,100632.14
2022-11-13T17:08:29.882Z,100630.91
2022-11-13T17:11:38.139Z,100618.08
2022-11-13T17:14:47.389Z,100627.13
2022-11-13T17:17:57.980Z,100626.79
2022-11-13T17:21:11.919Z,100623.11
2022-11-13T17:24:19.947Z,100622.56
2022-11-13T17:27:28.148Z,100622.77
2022-11-13T17:30:35.957Z,100616.27
2022-11-13T17:33:44.185Z,100610.36
2022-11-13T17:36:54.664Z,100612.81
2022-11-13T17:40:01.937Z,100615.58
2022-11-13T17:43:10.275Z,100614.90
2022-11-13T17:46:18.920Z,100607.95
2022-11-13T17:49:26.888Z,100603.18
2022-11-13T17:52:34.947Z,100601.23
2022-11-13T17:55:44.032Z,100603.11
2022-11-13T17:58:52.635Z,100602.65
2022-11-13T18:02:00.672Z,100602.02
2022-11-13T18:05:09.731Z,100597.84
2022-11-13T18:08:17.750Z,100605.32
2022-11-13T18:11:29.134Z,100599.23
2022-11-13T18:14:37.121Z,100599.96
2022-11-13T18:17:45.363Z,100599.59
2022-11-13T18:20:53.395Z,100603.92
2022-11-13T18:24:05.565Z,100601.48
2022-11-13T18:27:14.209Z,100593.98
2022-11-13T18:30:22.766Z,100588.09
2022-11-13T18:33:31.951Z,100585.52
2022-11-13T18:36:40.296Z,100591.67
2022-11-13T18:39:51.948Z,100587.76
2022-11-13T18:43:00.256Z,100583.09
2022-11-13T18:46:10.315Z,100582.30
2022-11-13T18:49:19.007Z,100581.14
2022-11-13T18:52:27.096Z,100570.89
2022-11-13T18:55:35.532Z,100565.35
2022-11-13T18:58:45.337Z,100562.95
2022-11-13T19:01:53.266Z,100559.17
2022-11-13T19:05:01.692Z,100550.47
2022-11-13T19:08:09.709Z,100538.45
2022-11-13T19:11:18.838Z,100539.23
2022-11-13T19:14:28.533Z,100531.54
2022-11-13T19:17:37.121Z,100532.94
2022-11-13T19:20:45.056Z,100540.08
2022-11-13T19:23:53.577Z,100547.69
2022-11-13T19:27:01.887Z,100555.08
2022-11-13T19:30:11.200Z,100563.85
2022-11-13T19:33:19.192Z,100563.61
2022-11-13T19:36:29.135Z,100557.23
2022-11-13T19:39:37.171Z,100554.27
2022-11-13T19:42:45.444Z,100550.11
2022-11-13T19:45:53.683Z,100542.30
2022-11-13T19:49:01.726Z,100548.96
2022-11-13T19:52:10.132Z,100543.14
2022-11-13T19:55:18.535Z,100542.48
2022-11-13T19:58:27.061Z,100537.95
2022-11-13T20:01:35.966Z,100536.38
2022-11-13T20:04:43.953Z,100534.23
2022-11-13T20:07:52.490Z,100531.29
2022-11-13T20:11:03.310Z,100526.77
2022-11-13T20:14:12.000Z,100514.66
2022-11-13T20:17:20.221Z,100513.66
2022-11-13T20:20:28.055Z,100513.16
2022-11-13T20:23:36.383Z,100518.52
2022-11-13T20:26:44.244Z,100516.19
2022-11-13T20:29:54.105Z,100517.52
2022-11-13T20:33:02.256Z,100504.26
2022-11-13T20:36:10.728Z,100503.42
2022-11-13T20:39:19.024Z,100502.45
2022-11-13T20:42:27.684Z,100504.63
2022-11-13T20:45:35.910Z,100502.55
2022-11-13T20:48:45.573Z,100504.58
2022-11-13T20:51:56.935Z,100505.41
2022-11-13T20:55:06.615Z,100505.52
2022-11-13T20:58:14.611Z,100501.46
2022-11-13T21:01:25.114Z,100498.10
2022-11-13T21:04:33.608Z,100490.03
2022-11-13T21:07:42.132Z,100489.44
2022-11-13T21:10:50.263Z,100484.75
2022-11-13T21:14:00.168Z,100480.75
2022-11-13T21:17:08.309Z,100480.81
2022-11-13T21:20:16.929Z,100481.60
2022-11-13T21:23:25.046Z,100480.29
2022-11-13T21:26:33.166Z,100487.30
2022-11-13T21:29:41.063Z,100492.92
2022-11-13T21:32:49.599Z,100489.20
2022-11-13T21:36:02.943Z,100491.52
2022-11-13T21:39:11.181Z,100484.46
2022-11-13T21:42:19.477Z,100485.30
2022-11-13T21:45:27.760Z,100493.59
2022-11-13T21:48:36.086Z,100493.42
2022-11-13T21:51:44.806Z,100493.88
2022-11-13T21:54:52.892Z,100499.58
2022-11-13T21:58:01.597Z,100500.33
2022-11-13T22:01:11.305Z,100496.70
2022-11-13T22:04:19.359Z,100494.38
2022-11-13T22:07:27.770Z,100504.89
2022-11-13T22:10:35.848Z,100529.75
2022-11-13T22:13:43.944Z,100520.71
2022-11-13T22:16:52.582Z,100531.98
2022-11-13T22:20:01.278Z,100531.04
2022-11-13T22:23:09.206Z,100518.68
2022-11-13T22:26:18.271Z,100511.46
2022-11-13T22:29:26.603Z,100505.48
2022-11-13T22:32:34.681Z,100502.31
2022-11-13T22:35:42.644Z,100497.10
2022-11-13T22:38:51.524Z,100497.69
2022-11-13T22:41:59.670Z,100493.36
2022-11-13T22:45:23.315Z,100486.97
2022-11-13T22:48:33.934Z,100500.96
2022-11-13T22:51:42.883Z,100509.50
2022-11-13T22:54:50.842Z,100500.51
2022-11-13T22:57:59.678Z,100501.70
2022-11-13T23:01:12.239Z,100506.80
2022-11-13T23:04:20.874Z,100502.67
2022-11-13T23:07:30.017Z,100505.10
2022-11-13T23:10:38.674Z,100509.52
2022-11-13T23:13:49.163Z,100500.14
2022-11-13T23:16:57.544Z,100501.73
2022-11-13T23:20:07.563Z,100505.39
2022-11-13T23:23:16.720Z,100507.70
2022-11-13T23:26:25.753Z,100498.23
2022-11-13T23:29:34.023Z,100494.48
2022-11-13T23:32:42.199Z,100501.57
2022-11-13T23:35:50.746Z,100500.01
2022-11-13T23:38:58.987Z,100498.14
2022-11-13T23:42:07.234Z,100500.80
2022-11-13T23:45:17.140Z,100495.13
2022-11-13T23:48:25.595Z,100492.10
2022-11-13T23:51:33.943Z,100483.88
2022-11-13T23:54:43.053Z,100484.22
2022-11-13T23:57:58.137Z,100483.08
